Time;durP1;ratioP1;P1;durP2;ratioP2;P2;SDS_P1;SDS_P2;PMS_P1;PMS_P2;Temp;Humidity;BMP_temperature;BMP_pressure;BME280_temperature;BME280_humidity;BME280_pressure;Samples;Min_cycle;Max_cycle;Signal;HPM_P1;HPM_P2
2020/12/07 00:01:54;;;;;;;8.45;4.18;;;18.40;48.10;;;;;;5088740;28;20028;-70
2020/12/07 00:04:21;;;;;;;6.88;3.53;;;18.30;47.20;;;;;;5083819;28;20043;-69
2020/12/07 00:06:54;;;;;;;8.25;3.88;;;18.30;46.90;;;;;;5084116;28;20028;-70
2020/12/07 00:09:21;;;;;;;3.72;3.30;;;18.10;47.20;;;;;;5079075;28;20106;-69
2020/12/07 00:11:50;;;;;;;7.07;3.53;;;18.00;46.80;;;;;;5097713;28;20099;-69
2020/12/07 00:14:17;;;;;;;6.72;4.53;;;18.00;46.90;;;;;;5097678;28;20453;-70
2020/12/07 00:16:45;;;;;;;6.43;3.65;;;18.00;47.60;;;;;;5091862;28;20039;-69
2020/12/07 00:19:12;;;;;;;7.63;3.13;;;17.90;47.00;;;;;;5083800;28;20361;-70
2020/12/07 00:21:42;;;;;;;5.60;3.10;;;17.90;47.40;;;;;;5070092;28;20040;-70
2020/12/07 00:24:09;;;;;;;9.32;3.97;;;17.90;47.30;;;;;;5067384;28;20390;-70
2020/12/07 00:26:35;;;;;;;5.13;3.67;;;17.90;47.60;;;;;;5061789;28;20100;-71
2020/12/07 00:29:02;;;;;;;4.90;3.00;;;17.80;47.80;;;;;;5064693;28;20023;-69
2020/12/07 00:31:28;;;;;;;6.03;3.08;;;17.70;47.80;;;;;;5066732;28;20089;-70
2020/12/07 00:33:58;;;;;;;7.47;3.40;;;17.70;47.70;;;;;;5065991;28;20482;-69
2020/12/07 00:36:28;;;;;;;5.28;3.47;;;17.50;47.60;;;;;;5072606;28;20040;-69
2020/12/07 00:38:55;;;;;;;6.93;3.97;;;17.60;48.00;;;;;;5075791;28;20332;-70
2020/12/07 00:41:23;;;;;;;8.07;3.38;;;17.60;48.00;;;;;;5068652;28;20032;-70
2020/12/07 00:43:50;;;;;;;8.73;3.78;;;17.50;48.20;;;;;;5067049;28;20013;-70
2020/12/07 00:46:17;;;;;;;6.18;3.92;;;17.40;48.20;;;;;;5065484;28;20373;-70
2020/12/07 00:48:44;;;;;;;4.43;3.45;;;17.40;48.40;;;;;;5074467;28;20039;-71
2020/12/07 00:51:10;;;;;;;7.20;3.90;;;17.30;48.30;;;;;;5060665;28;20086;-70
2020/12/07 00:53:37;;;;;;;6.07;4.13;;;17.10;48.20;;;;;;5078987;28;20492;-70
2020/12/07 00:56:03;;;;;;;11.27;4.22;;;17.10;48.50;;;;;;5086376;28;20510;-70
2020/12/07 00:58:30;;;;;;;6.85;3.25;;;17.00;48.40;;;;;;5069366;28;20037;-70
2020/12/07 01:00:57;;;;;;;9.55;4.00;;;17.10;48.00;;;;;;5064749;28;20111;-71
2020/12/07 01:03:25;;;;;;;7.32;3.92;;;16.90;48.20;;;;;;5070157;28;20013;-70
2020/12/07 01:05:53;;;;;;;10.50;3.60;;;16.60;48.70;;;;;;5073896;28;20035;-70
2020/12/07 01:08:21;;;;;;;13.60;4.47;;;16.40;49.00;;;;;;5064882;28;20021;-70
2020/12/07 01:10:55;;;;;;;4.78;2.80;;;16.40;49.50;;;;;;5075424;28;20033;-71
2020/12/07 01:13:22;;;;;;;6.93;3.40;;;16.20;49.80;;;;;;5070340;28;20036;-70
2020/12/07 01:15:52;;;;;;;6.97;3.03;;;16.10;50.30;;;;;;5071550;28;20033;-70
2020/12/07 01:18:18;;;;;;;6.72;2.67;;;16.00;50.60;;;;;;5070322;28;20073;-70
2020/12/07 01:20:45;;;;;;;4.10;2.75;;;15.90;50.60;;;;;;5070848;28;20039;-69
2020/12/07 01:23:11;;;;;;;3.20;2.55;;;15.80;50.20;;;;;;5068317;28;20029;-69
2020/12/07 01:25:38;;;;;;;7.00;2.78;;;15.70;51.10;;;;;;5066148;28;20016;-70
2020/12/07 01:28:04;;;;;;;4.65;3.00;;;15.60;51.20;;;;;;5073530;28;20051;-70
2020/12/07 01:30:31;;;;;;;9.73;4.13;;;15.50;51.20;;;;;;5072315;28;20037;-70
2020/12/07 01:32:57;;;;;;;3.67;2.47;;;15.50;50.20;;;;;;5068493;28;20406;-70
2020/12/07 01:35:24;;;;;;;5.97;3.35;;;15.50;50.70;;;;;;5070426;28;20452;-70
2020/12/07 01:37:50;;;;;;;9.50;4.07;;;15.40;51.20;;;;;;5065610;28;20094;-70
2020/12/07 01:40:16;;;;;;;6.68;3.58;;;15.40;50.90;;;;;;5067181;28;20355;-70
2020/12/07 01:42:43;;;;;;;4.05;2.47;;;15.20;51.60;;;;;;5070119;28;20021;-70
2020/12/07 01:45:09;;;;;;;5.63;3.00;;;15.10;51.60;;;;;;5091569;28;20024;-70
2020/12/07 01:47:36;;;;;;;7.45;3.28;;;15.10;51.10;;;;;;5063779;28;20081;-70
2020/12/07 01:50:03;;;;;;;4.03;3.45;;;14.90;51.90;;;;;;5066670;28;20043;-70
2020/12/07 01:52:29;;;;;;;4.80;4.32;;;14.90;52.10;;;;;;5070219;28;20044;-71
2020/12/07 01:54:56;;;;;;;8.60;3.80;;;14.90;51.20;;;;;;5072510;28;20051;-70
2020/12/07 01:57:22;;;;;;;8.15;2.92;;;14.90;51.40;;;;;;5070973;28;20073;-70
2020/12/07 01:59:49;;;;;;;8.65;3.25;;;14.80;51.30;;;;;;5069310;28;20031;-70
2020/12/07 02:02:15;;;;;;;10.07;3.40;;;14.70;52.20;;;;;;5074965;28;20025;-70
2020/12/07 02:04:43;;;;;;;16.17;5.10;;;14.60;51.70;;;;;;5073795;28;20032;-70
2020/12/07 02:07:20;;;;;;;5.30;3.28;;;14.60;51.80;;;;;;5073113;28;20029;-70
2020/12/07 02:09:46;;;;;;;4.95;2.95;;;14.40;52.30;;;;;;5073453;28;20402;-70
2020/12/07 02:12:13;;;;;;;5.88;3.65;;;14.20;52.90;;;;;;5074163;28;20339;-70
2020/12/07 02:14:39;;;;;;;5.68;3.42;;;14.20;52.10;;;;;;5074421;28;20032;-70
2020/12/07 02:17:06;;;;;;;8.85;3.70;;;14.30;52.60;;;;;;5071500;28;20032;-70
2020/12/07 02:19:33;;;;;;;6.45;3.60;;;14.40;52.50;;;;;;5071800;28;20020;-70
2020/12/07 02:21:59;;;;;;;9.77;4.97;;;14.40;52.60;;;;;;5064944;28;20028;-70
2020/12/07 02:24:26;;;;;;;7.55;4.28;;;14.40;52.60;;;;;;5065955;28;20032;-70
2020/12/07 02:26:52;;;;;;;7.65;3.60;;;14.40;52.60;;;;;;5067125;28;20021;-72
2020/12/07 02:29:19;;;;;;;9.15;3.88;;;14.30;52.70;;;;;;5068352;28;20040;-72
2020/12/07 02:31:46;;;;;;;10.57;3.72;;;14.20;52.60;;;;;;5067754;28;20450;-72
2020/12/07 02:34:12;;;;;;;3.92;2.88;;;14.20;52.80;;;;;;5071551;28;20028;-72
2020/12/07 02:36:39;;;;;;;5.72;3.22;;;14.20;53.30;;;;;;5068743;28;20394;-70
2020/12/07 02:39:05;;;;;;;6.25;3.58;;;14.30;53.30;;;;;;5080730;28;20496;-70
2020/12/07 02:41:31;;;;;;;7.20;3.92;;;14.20;53.10;;;;;;5065437;28;20039;-70
2020/12/07 02:43:58;;;;;;;10.05;4.18;;;14.20;53.60;;;;;;5068537;28;20039;-69
2020/12/07 02:46:24;;;;;;;5.95;3.20;;;14.20;53.30;;;;;;5065487;28;20078;-71
2020/12/07 02:48:51;;;;;;;6.63;3.05;;;14.30;53.40;;;;;;5066288;28;20081;-71
2020/12/07 02:51:17;;;;;;;3.47;3.17;;;14.20;53.20;;;;;;5070186;28;20430;-71
2020/12/07 02:53:43;;;;;;;9.77;3.90;;;14.00;53.60;;;;;;5066636;28;20339;-70
2020/12/07 02:56:10;;;;;;;11.65;3.70;;;13.90;53.80;;;;;;5062449;28;20025;-70
2020/12/07 02:58:37;;;;;;;6.32;4.13;;;13.80;53.70;;;;;;5059730;28;20039;-70
2020/12/07 03:01:03;;;;;;;5.22;3.60;;;13.90;53.80;;;;;;5067556;28;20052;-70
2020/12/07 03:03:29;;;;;;;7.97;5.47;;;14.00;53.90;;;;;;5062687;28;20021;-70
2020/12/07 03:05:56;;;;;;;8.35;4.30;;;14.00;53.90;;;;;;5060693;28;20039;-70
2020/12/07 03:08:22;;;;;;;6.45;4.45;;;13.90;53.90;;;;;;5064087;28;20032;-70
2020/12/07 03:10:49;;;;;;;7.85;4.20;;;13.80;54.20;;;;;;5059882;28;20036;-69
2020/12/07 03:13:15;;;;;;;8.00;4.47;;;13.80;54.40;;;;;;5060394;28;20409;-71
2020/12/07 03:15:41;;;;;;;5.13;4.00;;;13.80;54.70;;;;;;5066843;28;20032;-69
2020/12/07 03:18:08;;;;;;;7.10;4.05;;;13.70;54.70;;;;;;5061210;28;20106;-70
2020/12/07 03:20:34;;;;;;;7.05;4.68;;;13.70;54.60;;;;;;5058883;28;20021;-69
2020/12/07 03:23:01;;;;;;;11.27;4.63;;;13.70;54.60;;;;;;5067834;28;20055;-71
2020/12/07 03:25:27;;;;;;;5.65;3.63;;;13.70;54.40;;;;;;5068528;28;20063;-71
2020/12/07 03:27:54;;;;;;;6.38;3.95;;;13.80;55.00;;;;;;5070473;28;20051;-71
2020/12/07 03:30:20;;;;;;;5.53;3.63;;;13.70;54.40;;;;;;5071958;28;20028;-70
2020/12/07 03:32:47;;;;;;;7.15;4.40;;;13.70;54.70;;;;;;5076560;28;20029;-71
2020/12/07 03:35:13;;;;;;;10.70;3.80;;;13.80;54.70;;;;;;5073548;28;20070;-70
2020/12/07 03:37:39;;;;;;;5.50;3.60;;;13.70;54.70;;;;;;5074031;28;20043;-71
2020/12/07 03:40:06;;;;;;;7.03;4.45;;;13.70;54.70;;;;;;5076813;28;20592;-72
2020/12/07 03:42:32;;;;;;;4.57;3.08;;;13.60;54.80;;;;;;5070367;28;20370;-71
2020/12/07 03:44:59;;;;;;;5.05;4.10;;;13.40;54.90;;;;;;5068809;28;20027;-71
2020/12/07 03:47:25;;;;;;;7.57;3.80;;;13.40;55.20;;;;;;5066914;28;20103;-70
2020/12/07 03:49:52;;;;;;;6.22;3.60;;;13.50;55.10;;;;;;5076157;28;20029;-71
2020/12/07 03:52:18;;;;;;;5.05;3.75;;;13.50;54.70;;;;;;5066853;28;20043;-71
2020/12/07 03:54:44;;;;;;;10.02;3.83;;;13.60;54.70;;;;;;5078077;28;20032;-71
2020/12/07 03:57:11;;;;;;;6.30;4.13;;;13.40;54.80;;;;;;5072743;28;20025;-70
2020/12/07 03:59:37;;;;;;;6.10;3.70;;;13.20;55.00;;;;;;5071712;28;20362;-72
2020/12/07 04:02:04;;;;;;;7.80;3.40;;;13.00;55.50;;;;;;5073777;28;20095;-69
2020/12/07 04:04:49;;;;;;;5.78;3.67;;;12.90;55.50;;;;;;5075691;28;20135;-70
2020/12/07 04:07:15;;;;;;;3.88;3.47;;;12.80;56.10;;;;;;5077066;28;20096;-69
2020/12/07 04:09:42;;;;;;;7.97;3.90;;;12.60;56.30;;;;;;5063448;28;20128;-70
2020/12/07 04:12:08;;;;;;;8.10;4.57;;;12.60;55.60;;;;;;5057321;28;20021;-70
2020/12/07 04:14:35;;;;;;;8.10;4.40;;;12.70;55.40;;;;;;5062956;28;20031;-69
2020/12/07 04:17:01;;;;;;;7.93;5.30;;;12.80;56.00;;;;;;5076736;28;20512;-69
2020/12/07 04:19:28;;;;;;;5.95;4.13;;;12.80;55.90;;;;;;5076996;28;20032;-71
2020/12/07 04:21:54;;;;;;;6.80;3.85;;;12.80;55.70;;;;;;5072927;28;20032;-69
2020/12/07 04:24:21;;;;;;;8.00;4.03;;;12.60;55.80;;;;;;5077327;28;20034;-69
2020/12/07 04:26:48;;;;;;;10.70;4.63;;;12.60;56.40;;;;;;5076985;28;20039;-70
2020/12/07 04:29:15;;;;;;;7.85;4.28;;;12.60;56.10;;;;;;5075141;28;20054;-70
2020/12/07 04:31:42;;;;;;;12.60;4.40;;;12.50;56.30;;;;;;5076164;28;20047;-69
2020/12/07 04:34:08;;;;;;;7.00;4.95;;;12.30;56.30;;;;;;5071007;28;20442;-70
2020/12/07 04:36:34;;;;;;;4.70;3.95;;;12.30;57.20;;;;;;5069501;28;20054;-70
2020/12/07 04:39:01;;;;;;;6.45;4.75;;;12.40;57.10;;;;;;5069237;28;20025;-69
2020/12/07 04:41:27;;;;;;;11.43;4.88;;;12.30;57.30;;;;;;5055158;28;20082;-69
2020/12/07 04:43:54;;;;;;;8.95;5.38;;;12.30;57.30;;;;;;5077541;28;20473;-69
2020/12/07 04:46:21;;;;;;;6.10;5.10;;;12.30;57.40;;;;;;5088748;28;20028;-69
2020/12/07 04:48:53;;;;;;;7.20;5.63;;;12.30;57.30;;;;;;5087158;28;20036;-70
2020/12/07 04:51:21;;;;;;;10.05;4.68;;;12.20;57.50;;;;;;5070900;28;20107;-69
2020/12/07 04:53:49;;;;;;;6.82;4.38;;;12.20;57.60;;;;;;5074811;28;20033;-69
2020/12/07 04:56:16;;;;;;;7.20;4.30;;;12.10;57.60;;;;;;5074919;28;20030;-70
2020/12/07 04:58:43;;;;;;;6.63;4.90;;;12.10;57.70;;;;;;5069549;28;20025;-69
2020/12/07 05:01:10;;;;;;;6.50;4.43;;;12.10;57.90;;;;;;5067955;28;20052;-69
2020/12/07 05:03:36;;;;;;;7.80;4.97;;;12.10;58.30;;;;;;5071855;28;20026;-69
2020/12/07 05:06:05;;;;;;;6.53;3.85;;;12.00;58.00;;;;;;5074371;28;20071;-70
2020/12/07 05:08:32;;;;;;;6.82;4.07;;;12.20;58.30;;;;;;5075408;28;20016;-70
2020/12/07 05:11:02;;;;;;;6.97;4.78;;;12.10;57.80;;;;;;5070146;28;20353;-69
2020/12/07 05:13:37;;;;;;;7.47;4.82;;;12.10;58.20;;;;;;5073660;28;20024;-70
2020/12/07 05:16:03;;;;;;;6.63;4.25;;;12.10;57.90;;;;;;5067773;28;20048;-69
2020/12/07 05:18:37;;;;;;;7.55;4.35;;;12.10;57.90;;;;;;5074189;28;20093;-69
2020/12/07 05:21:04;;;;;;;6.45;4.13;;;12.10;57.90;;;;;;5076269;28;20390;-69
2020/12/07 05:23:42;;;;;;;7.38;4.28;;;12.00;58.10;;;;;;5071850;28;20421;-69
2020/12/07 05:26:10;;;;;;;12.55;4.80;;;11.90;58.00;;;;;;5065975;28;20017;-69
2020/12/07 05:28:47;;;;;;;6.53;3.95;;;11.90;58.40;;;;;;5083722;28;20051;-70
2020/12/07 05:31:24;;;;;;;8.75;5.18;;;11.90;58.70;;;;;;5073930;28;20094;-69
2020/12/07 05:33:51;;;;;;;9.18;4.15;;;12.00;58.40;;;;;;5067874;28;20023;-70
2020/12/07 05:36:18;;;;;;;11.85;3.70;;;11.80;58.00;;;;;;5067747;28;20028;-69
2020/12/07 05:38:45;;;;;;;8.43;4.50;;;11.80;58.20;;;;;;5070161;28;20029;-69
2020/12/07 05:41:12;;;;;;;9.18;5.47;;;11.70;59.00;;;;;;5072267;28;20470;-69
2020/12/07 05:43:39;;;;;;;8.70;4.93;;;11.60;58.70;;;;;;5066326;28;20032;-69
2020/12/07 05:46:06;;;;;;;5.65;4.38;;;11.60;58.50;;;;;;5065585;28;20071;-69
2020/12/07 05:48:34;;;;;;;6.05;4.50;;;11.50;59.00;;;;;;5071186;28;20414;-69
2020/12/07 05:51:04;;;;;;;6.15;4.07;;;11.70;59.30;;;;;;5070179;28;20099;-69
2020/12/07 05:53:35;;;;;;;7.95;4.10;;;11.70;58.80;;;;;;5068979;28;20416;-70
2020/12/07 05:56:04;;;;;;;5.53;3.80;;;11.70;58.80;;;;;;5062474;28;20021;-69
2020/12/07 05:58:47;;;;;;;7.40;4.22;;;11.60;58.50;;;;;;5071339;28;20025;-69
2020/12/07 06:01:18;;;;;;;6.78;4.13;;;11.80;59.00;;;;;;5073355;28;20033;-69
2020/12/07 06:03:44;;;;;;;9.82;4.50;;;11.80;58.50;;;;;;5078438;28;20021;-69
2020/12/07 06:06:11;;;;;;;6.25;4.70;;;11.80;58.40;;;;;;5076584;28;20016;-69
2020/12/07 06:08:40;;;;;;;8.95;5.30;;;11.80;58.70;;;;;;5072944;28;20458;-69
2020/12/07 06:11:12;;;;;;;5.65;4.63;;;11.80;58.70;;;;;;5072922;28;20104;-69
2020/12/07 06:13:40;;;;;;;6.95;4.80;;;11.90;58.70;;;;;;5073738;28;20052;-69
2020/12/07 06:16:07;;;;;;;6.18;3.78;;;11.80;58.60;;;;;;5072784;28;20409;-70
2020/12/07 06:18:44;;;;;;;7.95;4.15;;;11.60;58.80;;;;;;5074789;28;20028;-70
2020/12/07 06:21:17;;;;;;;7.18;3.80;;;11.60;58.90;;;;;;5077313;28;20067;-69
2020/12/07 06:23:46;;;;;;;8.52;4.20;;;11.50;59.00;;;;;;5074603;28;20119;-69
2020/12/07 06:26:15;;;;;;;7.78;4.00;;;11.50;59.20;;;;;;5076729;28;20354;-69
2020/12/07 06:28:43;;;;;;;4.45;3.83;;;11.50;59.30;;;;;;5072105;28;20516;-69
2020/12/07 06:31:14;;;;;;;8.07;4.70;;;11.30;59.10;;;;;;5077621;28;20047;-69
2020/12/07 06:33:49;;;;;;;6.95;3.67;;;11.40;59.80;;;;;;5067911;28;20052;-69
2020/12/07 06:36:32;;;;;;;6.97;4.18;;;11.50;59.70;;;;;;5065139;28;20032;-69
2020/12/07 06:39:17;;;;;;;8.52;4.25;;;11.60;59.60;;;;;;5069085;28;20031;-69
2020/12/07 06:41:47;;;;;;;4.88;3.45;;;11.60;60.40;;;;;;5069761;28;20033;-69
2020/12/07 06:44:17;;;;;;;6.82;4.18;;;11.50;59.50;;;;;;5076474;28;20024;-69
2020/12/07 06:47:01;;;;;;;6.30;3.97;;;11.40;59.60;;;;;;5074182;28;20028;-69
2020/12/07 06:52:18;;;;;;;7.20;4.00;;;11.50;59.40;;;;;;5061596;28;20017;-69
2020/12/07 06:55:08;;;;;;;7.57;4.13;;;11.50;59.20;;;;;;5073494;28;20032;-69
2020/12/07 06:57:49;;;;;;;10.38;4.68;;;11.50;59.80;;;;;;5074119;28;20024;-69
2020/12/07 07:00:23;;;;;;;6.75;4.32;;;11.50;59.70;;;;;;5071200;28;20029;-69
2020/12/07 07:02:51;;;;;;;5.30;3.67;;;11.40;59.50;;;;;;5074220;28;20081;-69
2020/12/07 07:05:24;;;;;;;5.90;4.40;;;11.50;59.70;;;;;;5077468;28;20025;-69
2020/12/07 07:07:51;;;;;;;4.57;3.78;;;11.40;59.50;;;;;;5072016;28;20028;-70
2020/12/07 07:10:18;;;;;;;5.32;4.18;;;11.30;59.80;;;;;;5076813;28;20046;-70
2020/12/07 07:12:46;;;;;;;8.57;4.30;;;11.20;59.80;;;;;;5073242;28;20459;-69
2020/12/07 07:15:13;;;;;;;6.75;3.97;;;11.20;60.20;;;;;;5076277;28;20025;-69
2020/12/07 07:17:47;;;;;;;4.32;3.92;;;11.20;59.60;;;;;;5072701;28;20174;-69
2020/12/07 07:20:15;;;;;;;5.35;3.60;;;11.20;60.40;;;;;;5070975;28;20032;-69
2020/12/07 07:22:47;;;;;;;5.72;4.80;;;11.20;60.00;;;;;;5086394;28;20024;-69
2020/12/07 07:30:23;;;;;;;5.53;3.75;;;10.70;60.50;;;;;;5084971;28;20017;-69
2020/12/07 07:32:51;;;;;;;8.10;4.28;;;10.70;60.70;;;;;;5076770;28;20351;-70
2020/12/07 07:35:20;;;;;;;5.10;4.28;;;10.60;60.60;;;;;;5076276;28;20035;-69
2020/12/07 07:37:47;;;;;;;7.30;5.00;;;10.60;60.40;;;;;;5076367;28;20016;-69
2020/12/07 07:40:15;;;;;;;4.45;3.85;;;10.70;60.90;;;;;;5075750;28;20032;-69
2020/12/07 07:42:50;;;;;;;7.97;4.50;;;10.70;59.90;;;;;;5075046;28;20017;-69
2020/12/07 07:45:21;;;;;;;6.15;4.85;;;10.60;60.20;;;;;;5063907;28;20101;-70
2020/12/07 07:47:54;;;;;;;7.93;4.95;;;10.60;60.20;;;;;;5077839;28;20020;-69
2020/12/07 08:13:00;;;;;;;4.95;4.18;;;10.70;61.10;;;;;;5074938;28;20035;-69
2020/12/07 08:17:59;;;;;;;5.95;4.25;;;10.90;60.60;;;;;;5075855;28;20033;-70
2020/12/07 08:20:29;;;;;;;9.05;5.65;;;11.00;61.20;;;;;;5075454;28;20020;-69
2020/12/07 08:23:00;;;;;;;4.18;3.85;;;11.00;60.70;;;;;;5075176;28;20346;-69
2020/12/07 08:25:49;;;;;;;6.72;4.43;;;11.00;60.40;;;;;;5074317;28;20101;-70
2020/12/07 08:28:41;;;;;;;6.32;4.28;;;11.00;60.90;;;;;;5065120;28;20089;-69
2020/12/07 08:31:14;;;;;;;4.38;3.85;;;10.80;60.50;;;;;;5063834;28;20054;-69
2020/12/07 08:33:54;;;;;;;5.78;4.07;;;10.80;61.40;;;;;;5075073;28;20112;-69
2020/12/07 08:36:20;;;;;;;6.40;4.65;;;10.80;60.90;;;;;;5072688;28;20054;-69
2020/12/07 08:38:47;;;;;;;6.05;3.75;;;10.60;61.20;;;;;;5075883;28;20099;-70
2020/12/07 08:41:21;;;;;;;6.28;4.97;;;10.80;61.50;;;;;;5075229;28;20064;-69
2020/12/07 08:43:57;;;;;;;6.45;4.95;;;10.90;61.00;;;;;;5075318;28;20025;-69
2020/12/07 08:46:26;;;;;;;7.78;4.60;;;10.80;60.80;;;;;;5073788;28;20028;-70
2020/12/07 08:48:54;;;;;;;6.93;3.50;;;10.90;61.00;;;;;;5074292;28;20025;-69
2020/12/07 08:51:27;;;;;;;6.63;3.38;;;10.60;61.10;;;;;;5074318;28;20031;-69
2020/12/07 08:53:55;;;;;;;5.30;3.83;;;10.50;61.80;;;;;;5075657;28;20032;-69
2020/12/07 08:56:21;;;;;;;7.22;3.40;;;10.50;61.10;;;;;;5073466;28;20162;-69
2020/12/07 08:58:48;;;;;;;5.65;3.00;;;10.20;61.50;;;;;;5074565;28;20415;-69
2020/12/07 09:01:14;;;;;;;6.30;3.40;;;10.20;61.90;;;;;;5075249;28;20115;-69
2020/12/07 09:03:43;;;;;;;4.82;3.78;;;10.20;61.50;;;;;;5071586;28;20020;-69
2020/12/07 09:06:12;;;;;;;3.72;3.30;;;10.20;61.70;;;;;;5071247;28;20572;-69
2020/12/07 09:08:46;;;;;;;6.10;3.97;;;10.20;61.80;;;;;;5073967;28;20366;-69
2020/12/07 09:11:15;;;;;;;5.18;4.60;;;10.10;61.50;;;;;;5073859;28;20026;-69
2020/12/07 09:13:42;;;;;;;5.38;3.75;;;10.30;61.60;;;;;;5074941;28;20056;-69
2020/12/07 09:16:09;;;;;;;5.35;3.55;;;10.30;61.80;;;;;;5073042;28;20525;-69
2020/12/07 09:18:37;;;;;;;4.22;3.58;;;10.50;61.00;;;;;;5072560;28;20174;-70
2020/12/07 09:21:04;;;;;;;4.05;3.08;;;10.30;60.90;;;;;;5073137;28;20100;-70
2020/12/07 09:23:31;;;;;;;3.28;2.95;;;10.40;61.10;;;;;;5068754;28;20381;-70
2020/12/07 09:25:57;;;;;;;7.85;3.60;;;10.20;61.50;;;;;;5069715;28;20046;-70
2020/12/07 09:28:24;;;;;;;5.20;3.45;;;10.30;62.00;;;;;;5063365;28;20020;-70
2020/12/07 09:30:50;;;;;;;6.22;3.47;;;10.30;61.00;;;;;;5073270;28;20398;-70
2020/12/07 09:33:17;;;;;;;3.78;3.38;;;10.50;61.40;;;;;;5070495;28;20446;-69
2020/12/07 09:35:44;;;;;;;4.25;3.72;;;10.40;60.90;;;;;;5068405;28;20446;-69
2020/12/07 09:38:10;;;;;;;6.93;2.97;;;10.10;61.70;;;;;;5071680;28;20033;-69
2020/12/07 09:40:37;;;;;;;7.28;3.50;;;10.10;62.00;;;;;;5068860;28;20449;-69
2020/12/07 09:43:04;;;;;;;3.60;2.95;;;10.30;61.40;;;;;;5072910;28;20111;-69
2020/12/07 09:45:31;;;;;;;3.65;3.08;;;10.20;61.50;;;;;;5073974;28;20430;-69
2020/12/07 09:48:01;;;;;;;4.63;3.45;;;10.10;61.90;;;;;;5073584;28;20028;-70
2020/12/07 09:50:28;;;;;;;6.25;2.88;;;9.90;62.40;;;;;;5073448;28;20450;-69
2020/12/07 09:52:54;;;;;;;8.18;3.47;;;9.80;62.80;;;;;;5064002;28;20399;-69
2020/12/07 09:55:25;;;;;;;5.50;3.60;;;9.90;62.40;;;;;;5074135;28;20025;-69
2020/12/07 09:57:52;;;;;;;6.85;3.10;;;9.80;62.10;;;;;;5069653;28;20405;-69
2020/12/07 10:00:18;;;;;;;6.88;3.47;;;9.70;62.20;;;;;;5071741;28;20027;-69
2020/12/07 10:02:46;;;;;;;5.10;4.30;;;10.00;61.90;;;;;;5063354;28;20025;-70
2020/12/07 10:05:13;;;;;;;6.60;3.08;;;9.70;63.30;;;;;;5067065;28;20498;-69
2020/12/07 10:07:40;;;;;;;9.18;3.38;;;9.60;62.70;;;;;;5075008;28;20016;-69
2020/12/07 10:10:06;;;;;;;3.78;3.30;;;9.70;62.30;;;;;;5074672;28;20028;-70
2020/12/07 10:12:33;;;;;;;5.15;3.20;;;9.60;62.60;;;;;;5072305;28;20474;-70
2020/12/07 10:15:01;;;;;;;7.10;3.75;;;9.70;62.80;;;;;;5074830;28;20483;-70
2020/12/07 10:17:27;;;;;;;8.48;3.22;;;9.80;61.80;;;;;;5072322;28;20359;-70
2020/12/07 10:19:54;;;;;;;4.00;3.42;;;9.70;61.90;;;;;;5073584;28;20039;-70
2020/12/07 10:22:20;;;;;;;8.23;3.78;;;9.50;62.50;;;;;;5067789;28;20115;-69
2020/12/07 10:24:47;;;;;;;6.55;4.00;;;9.50;62.70;;;;;;5072327;28;20025;-69
2020/12/07 10:27:13;;;;;;;8.68;5.32;;;9.60;62.20;;;;;;5071583;28;20025;-70
2020/12/07 10:29:40;;;;;;;9.32;4.60;;;9.80;62.60;;;;;;5066607;28;20063;-70
2020/12/07 10:32:06;;;;;;;8.25;4.50;;;9.90;61.70;;;;;;5074099;28;20029;-70
2020/12/07 10:34:33;;;;;;;10.55;5.22;;;9.80;62.40;;;;;;5071544;28;20108;-70
2020/12/07 10:37:00;;;;;;;5.70;4.45;;;9.70;62.20;;;;;;5072776;28;20054;-70
2020/12/07 10:39:27;;;;;;;14.30;4.82;;;9.90;61.80;;;;;;5073553;28;20027;-69
2020/12/07 10:41:53;;;;;;;7.82;4.70;;;10.00;62.10;;;;;;5072384;28;20060;-70
2020/12/07 10:44:20;;;;;;;8.60;4.13;;;10.10;61.40;;;;;;5073738;28;20042;-69
2020/12/07 10:46:49;;;;;;;7.60;4.20;;;10.30;61.60;;;;;;5071799;28;20033;-69
2020/12/07 10:49:16;;;;;;;10.07;4.22;;;10.30;61.50;;;;;;5062526;28;20032;-69
2020/12/07 10:51:46;;;;;;;13.23;5.47;;;10.40;61.30;;;;;;5072604;28;20141;-69
2020/12/07 10:54:12;;;;;;;10.68;4.50;;;10.40;61.00;;;;;;5063318;28;20025;-69
2020/12/07 10:56:42;;;;;;;5.30;4.05;;;10.40;61.10;;;;;;5070377;28;20451;-70
2020/12/07 10:59:09;;;;;;;6.75;4.28;;;10.30;61.00;;;;;;5057069;28;20029;-70
2020/12/07 11:01:35;;;;;;;12.07;4.22;;;10.40;61.50;;;;;;5055797;28;20033;-70
2020/12/07 11:04:01;;;;;;;6.28;3.60;;;10.60;61.00;;;;;;5071066;28;20021;-70
2020/12/07 11:06:33;;;;;;;8.30;4.07;;;10.70;61.00;;;;;;5072713;28;20446;-70
2020/12/07 11:09:04;;;;;;;9.98;4.10;;;10.70;60.50;;;;;;5073524;28;20024;-70
2020/12/07 11:11:31;;;;;;;11.43;4.20;;;10.70;60.80;;;;;;5073524;28;20024;-70
2020/12/07 11:13:57;;;;;;;7.50;4.07;;;10.70;60.80;;;;;;5074378;28;20027;-70
2020/12/07 11:16:25;;;;;;;9.82;4.40;;;10.90;60.30;;;;;;5072207;28;20150;-70
2020/12/07 11:18:52;;;;;;;9.55;3.58;;;10.90;60.00;;;;;;5072330;28;20024;-70
2020/12/07 11:21:19;;;;;;;6.45;3.40;;;10.80;60.30;;;;;;5073136;28;20024;-70
2020/12/07 11:23:48;;;;;;;11.52;4.35;;;10.60;60.60;;;;;;5072774;28;20021;-70
2020/12/07 11:26:16;;;;;;;6.30;3.45;;;10.70;60.80;;;;;;5071072;28;20092;-70
2020/12/07 11:28:43;;;;;;;9.70;4.40;;;10.70;60.70;;;;;;5068925;28;20119;-70
2020/12/07 11:31:14;;;;;;;8.68;4.00;;;10.70;60.10;;;;;;5070943;28;20089;-70
2020/12/07 11:33:41;;;;;;;5.50;3.83;;;10.60;60.20;;;;;;5071118;28;20025;-70
2020/12/07 11:36:07;;;;;;;7.85;4.22;;;10.50;60.40;;;;;;5071330;28;20469;-70
2020/12/07 11:38:42;;;;;;;6.65;3.42;;;10.40;60.70;;;;;;5073106;28;20040;-70
2020/12/07 11:41:22;;;;;;;7.88;3.33;;;10.50;60.30;;;;;;5073170;28;20028;-70
2020/12/07 11:44:04;;;;;;;7.65;3.50;;;10.20;60.70;;;;;;5071879;28;20081;-69
2020/12/07 11:46:34;;;;;;;7.93;3.40;;;10.20;60.70;;;;;;5072232;28;20081;-70
2020/12/07 11:49:01;;;;;;;3.50;3.13;;;10.30;60.90;;;;;;5071854;28;20031;-69
2020/12/07 11:51:28;;;;;;;7.90;3.65;;;10.40;60.50;;;;;;5074664;28;20099;-70
2020/12/07 11:53:55;;;;;;;5.85;3.75;;;10.40;60.40;;;;;;5076109;28;20025;-70
2020/12/07 11:56:29;;;;;;;9.25;3.90;;;10.40;60.20;;;;;;5065836;28;20024;-70
2020/12/07 11:58:55;;;;;;;7.47;4.00;;;10.30;61.10;;;;;;5074857;28;20035;-70
2020/12/07 12:01:22;;;;;;;6.00;3.13;;;10.20;60.70;;;;;;5066011;28;20032;-70
2020/12/07 12:03:49;;;;;;;5.68;2.85;;;10.40;60.60;;;;;;5075879;28;20030;-70
2020/12/07 12:06:34;;;;;;;6.93;3.75;;;10.50;60.20;;;;;;5077110;28;20060;-69
2020/12/07 12:09:01;;;;;;;5.43;3.30;;;10.50;59.80;;;;;;5074868;28;20445;-70
2020/12/07 12:11:33;;;;;;;6.35;3.83;;;10.20;60.20;;;;;;5076120;28;20032;-70
2020/12/07 12:14:00;;;;;;;4.13;3.50;;;10.10;60.90;;;;;;5064581;28;20354;-70
2020/12/07 12:16:27;;;;;;;5.35;3.00;;;10.00;60.90;;;;;;5074571;28;20028;-69
2020/12/07 12:18:58;;;;;;;14.40;4.03;;;10.00;61.20;;;;;;5075093;28;20028;-69
2020/12/07 12:21:27;;;;;;;17.27;5.47;;;10.00;61.20;;;;;;5074635;28;20442;-69
2020/12/07 12:23:54;;;;;;;8.38;4.03;;;10.10;61.00;;;;;;5066724;28;20451;-69
2020/12/07 12:26:21;;;;;;;7.22;3.55;;;10.40;60.40;;;;;;5076090;28;20442;-69
2020/12/07 12:28:48;;;;;;;9.43;3.42;;;10.40;60.40;;;;;;5075290;28;20145;-69
2020/12/07 12:31:15;;;;;;;9.93;3.50;;;10.50;60.50;;;;;;5075138;28;20107;-69
2020/12/07 12:33:45;;;;;;;5.30;3.03;;;10.70;60.20;;;;;;5075356;28;20099;-69
2020/12/07 12:36:25;;;;;;;7.40;2.90;;;10.60;60.00;;;;;;5074935;28;20040;-69
2020/12/07 12:38:52;;;;;;;5.47;3.50;;;10.60;60.10;;;;;;5074929;28;20404;-69
2020/12/07 12:41:19;;;;;;;5.65;4.05;;;10.60;60.20;;;;;;5075602;28;20021;-70
2020/12/07 12:43:46;;;;;;;8.02;3.22;;;10.70;59.80;;;;;;5075056;28;20123;-70
2020/12/07 12:46:13;;;;;;;8.25;3.78;;;10.70;59.60;;;;;;5073998;28;20367;-69
2020/12/07 12:48:40;;;;;;;10.82;3.05;;;10.70;59.60;;;;;;5075366;28;20112;-69
2020/12/07 12:51:08;;;;;;;5.63;3.28;;;10.50;60.00;;;;;;5072022;28;20025;-70
2020/12/07 12:53:36;;;;;;;7.00;4.47;;;10.50;60.30;;;;;;5073472;28;20151;-70
2020/12/07 12:56:08;;;;;;;7.45;3.42;;;10.80;59.60;;;;;;5073739;28;20027;-69
2020/12/07 12:58:36;;;;;;;7.70;2.85;;;10.90;59.30;;;;;;5069472;28;20029;-69
2020/12/07 13:01:04;;;;;;;7.20;3.88;;;10.90;59.20;;;;;;5062631;28;20068;-69
2020/12/07 13:03:30;;;;;;;7.63;3.38;;;10.90;59.40;;;;;;5075352;28;20029;-70
2020/12/07 13:05:56;;;;;;;6.05;3.35;;;10.70;60.30;;;;;;5073495;28;20031;-69
2020/12/07 13:08:23;;;;;;;9.15;3.67;;;10.80;59.60;;;;;;5074373;28;20181;-70
2020/12/07 13:10:50;;;;;;;5.47;3.28;;;10.50;59.90;;;;;;5075562;28;20099;-69
2020/12/07 13:13:17;;;;;;;7.75;3.22;;;10.30;60.20;;;;;;5074170;28;20062;-70
2020/12/07 13:15:52;;;;;;;7.18;3.55;;;10.30;60.20;;;;;;5073738;28;20040;-69
2020/12/07 13:18:18;;;;;;;6.10;3.08;;;10.10;60.20;;;;;;5073105;28;20147;-70
2020/12/07 13:20:57;;;;;;;7.78;3.72;;;10.00;60.50;;;;;;5074065;28;20089;-70
2020/12/07 13:23:31;;;;;;;4.43;3.30;;;10.10;60.50;;;;;;5073489;28;20111;-69
2020/12/07 13:26:08;;;;;;;4.63;3.00;;;10.00;60.70;;;;;;5073773;28;20028;-69